Orleans, IN (47452)

9:17 PM EST on February 07, 2016 (GMT -0500)
B&K Mundy Farms | | Change Station
CLOSE
Current Station
Personal Weather Station
Location: Mitchell, IN
Elevation: 656 ft
Nearby Weather Stations
Active Advisory: Special Statement

Elev 656 ft 38.71 °N, 86.49 °W | Updated 10 minutes ago

Overcast
Overcast
47.9 °F
Feels Like 48 °F
N
3.0
Wind Variable Wind from West
Gusts 7.0 mph

Today
High -- | Low -- °F
--% Chance of Precip.
Yesterday
High -- | Low -- °F
Precip. -- in
Pressure 29.83 in
Visibility 10.0 miles
Clouds Overcast 6000 ft
Windchill 48 °F
Dew Point 30 °F
Humidity 51%
Rainfall 0.00 in
Snow Depth Not available.
7:46 AM 6:14 PM
Waning Crescent, 0% visible
METAR KBMG 080153Z 28007KT 10SM OVC060 09/M02 A2982 RMK AO2 SLP100 T00891017
Pressure 29.83 in
Visibility 10.0 miles
Clouds Overcast 6000 ft
Windchill 48 °F
Dew Point 30 °F
Humidity 51%
Rainfall 0.00 in
Snow Depth Not available.
7:46 AM 6:14 PM
Waning Crescent, 0% visible
METAR KBMG 080153Z 28007KT 10SM OVC060 09/M02 A2982 RMK AO2 SLP100 T00891017

10-Day Weather Forecast

Almanac

Astronomy

Feb. 07, 2016 Rise Set
Actual Time
Civil Twilight
Nautical Twilight
Astronomical Twilight
Moon
Length of Visible Light
Length of Day
Tomorrow will be .
, % of the Moon is Illuminated

Today's Extremes

State Highs State Lows

Community

WunderPhotos

Upload Photos

1,891,364 photos uploaded!

WunderBlog® & News

Nearby

Air Quality

  Air Quality AQ Index Pollutant
Not available.

Snow Depth

Station Depth Elevation

Earthquake Activity

City Distance Mag. Time & Date
Minimum magnitude displayed is 2.5.

Coastal Water Temperatures

Place Temperature

Stations

Nearby Weather Stations

Station Location Temp. Windchill Dew Point Humidity Wind Precip. Elev Updated Type
                   

Watches & Warnings

Special Statement
Issued: 3:05 PM CST Feb. 7, 2016 – National Weather Service

... Snow showers Monday afternoon through Tuesday evening...

After a morning mix of light rain and snow showers... scattered to
numerous moderate snow showers are expected at times from Monday
afternoon through at least Tuesday evening. As temperatures fall
below freezing... each passing shower will produce a dusting to a
light coating of snow capable of quickly covering surfaces. Travel
may be minorly impacted at times... especially untreated and side
streets. Overall 1 to 2 inches of snow is possible through Tuesday
evening. Use caution if planning to travel during this time.


Bjs